createdAt,value
2017-11-01T00:00:42.369Z,0
2017-11-01T00:10:57.772Z,0
2017-11-01T00:21:12.262Z,0
2017-11-01T00:31:26.908Z,0
2017-11-01T00:41:40.838Z,0
2017-11-01T00:51:54.581Z,0
2017-11-01T01:02:09.359Z,0
2017-11-01T01:12:24.225Z,0
2017-11-01T01:22:38.771Z,0
2017-11-01T01:32:52.683Z,0
2017-11-01T01:43:08.313Z,0
2017-11-01T01:53:23.246Z,0
2017-11-01T02:03:37.317Z,0
2017-11-01T02:13:52.684Z,0
2017-11-01T02:24:07.493Z,0
2017-11-01T02:34:21.628Z,0
2017-11-01T02:44:36.960Z,0
2017-11-01T02:54:51.770Z,0
2017-11-01T03:05:06.128Z,0
2017-11-01T03:15:20.845Z,0
2017-11-01T03:25:35.885Z,0
2017-11-01T03:35:51.084Z,0
2017-11-01T03:46:04.841Z,0
2017-11-01T03:56:20.335Z,0
2017-11-01T04:06:35.844Z,0
2017-11-01T04:16:49.834Z,0
2017-11-01T04:27:04.152Z,0
2017-11-01T04:37:18.193Z,0
2017-11-01T04:47:33.874Z,0
2017-11-01T04:57:47.710Z,0
2017-11-01T05:08:01.510Z,0
2017-11-01T05:18:17.165Z,0
2017-11-01T05:28:31.544Z,0
2017-11-01T05:38:46.140Z,0
2017-11-01T05:49:00.779Z,0
2017-11-01T05:59:15.831Z,0
2017-11-01T06:09:29.553Z,0
2017-11-01T06:19:43.281Z,0
2017-11-01T06:29:58.900Z,5
2017-11-01T06:40:13.213Z,10
2017-11-01T06:50:27.118Z,15
2017-11-01T07:00:41.614Z,15
2017-11-01T07:10:56.491Z,20
2017-11-01T07:21:11.719Z,40
2017-11-01T07:31:26.553Z,45
2017-11-01T07:41:40.372Z,80
2017-11-01T07:51:56.037Z,80
2017-11-01T08:02:09.858Z,85
2017-11-01T08:12:23.772Z,55
2017-11-01T08:22:38.046Z,55
2017-11-01T08:32:52.640Z,60
2017-11-01T08:43:06.598Z,90
2017-11-01T08:53:21.611Z,95
2017-11-01T09:03:37.291Z,125
2017-11-01T09:13:52.511Z,170
2017-11-01T09:24:07.744Z,275
2017-11-01T09:34:22.787Z,200
2017-11-01T09:44:37.962Z,160
2017-11-01T09:54:52.536Z,180
2017-11-01T10:05:07.472Z,185
2017-11-01T10:15:22.308Z,215
2017-11-01T10:25:37.160Z,195
2017-11-01T10:35:52.476Z,190
2017-11-01T10:46:07.445Z,245
2017-11-01T10:56:21.819Z,210
2017-11-01T11:06:36.080Z,230
2017-11-01T11:16:51.084Z,200
2017-11-01T11:27:05.306Z,250
2017-11-01T11:37:20.078Z,470
2017-11-01T11:47:34.791Z,205
2017-11-01T11:57:49.303Z,225
2017-11-01T12:08:04.066Z,325
2017-11-01T12:18:19.293Z,540
2017-11-01T12:28:33.182Z,490
2017-11-01T12:38:48.040Z,250
2017-11-01T12:49:03.715Z,520
2017-11-01T12:59:18.912Z,370
2017-11-01T13:09:33.208Z,465
2017-11-01T13:19:48.841Z,610
2017-11-01T13:30:03.385Z,490
2017-11-01T13:40:18.076Z,335
2017-11-01T13:50:33.152Z,355
2017-11-01T14:00:47.802Z,425
2017-11-01T14:11:01.844Z,320
2017-11-01T14:21:17.126Z,285
2017-11-01T14:31:30.986Z,230
2017-11-01T14:41:44.947Z,155
2017-11-01T14:52:00.228Z,110
2017-11-01T15:02:13.986Z,110
2017-11-01T15:12:28.898Z,90
2017-11-01T15:22:43.604Z,55
2017-11-01T15:32:57.987Z,45
2017-11-01T15:43:13.050Z,25
2017-11-01T15:53:27.174Z,15
2017-11-01T16:03:41.110Z,5
2017-11-01T16:13:56.249Z,0
2017-11-01T16:24:10.962Z,0
2017-11-01T16:34:25.322Z,0
2017-11-01T16:44:39.602Z,0
2017-11-01T16:54:54.256Z,0
2017-11-01T17:05:09.611Z,0
2017-11-01T17:15:24.503Z,0
2017-11-01T17:25:38.646Z,0
2017-11-01T17:35:52.508Z,0
2017-11-01T17:46:06.330Z,0
2017-11-01T17:56:20.871Z,0
2017-11-01T18:06:36.074Z,0
2017-11-01T18:16:51.776Z,0
2017-11-01T18:27:06.758Z,0
2017-11-01T18:37:20.674Z,0
2017-11-01T18:47:34.406Z,0
2017-11-01T18:57:50.042Z,0
2017-11-01T19:08:05.600Z,0
2017-11-01T19:18:19.563Z,0
2017-11-01T19:28:33.612Z,0
2017-11-01T19:38:48.274Z,0
2017-11-01T19:49:03.344Z,0
2017-11-01T19:59:17.918Z,0
2017-11-01T20:09:32.972Z,0
2017-11-01T20:19:47.694Z,0
2017-11-01T20:30:03.172Z,0
2017-11-01T20:40:17.752Z,0
2017-11-01T20:50:33.020Z,0
2017-11-01T21:00:48.386Z,0
2017-11-01T21:11:02.398Z,0
2017-11-01T21:21:16.678Z,0
2017-11-01T21:31:31.646Z,0
2017-11-01T21:41:45.963Z,0
2017-11-01T21:52:00.232Z,0
2017-11-01T22:02:14.409Z,0
2017-11-01T22:12:28.249Z,0
2017-11-01T22:22:43.447Z,0
2017-11-01T22:32:58.383Z,0
2017-11-01T22:43:12.955Z,0
2017-11-01T22:53:26.692Z,0
2017-11-01T23:03:42.043Z,0
2017-11-01T23:13:56.161Z,0
2017-11-01T23:24:09.918Z,0
2017-11-01T23:34:24.997Z,0
2017-11-01T23:44:38.843Z,0
2017-11-01T23:54:53.443Z,0
